Time;durP1;ratioP1;P1;durP2;ratioP2;P2;SDS_P1;SDS_P2;PMS_P1;PMS_P2;Temp;Humidity;BMP_temperature;BMP_pressure;BME280_temperature;BME280_humidity;BME280_pressure;Samples;Min_cycle;Max_cycle;Signal;HPM_P1;HPM_P2
2022/09/18 00:00:39;;;;;;;3.60;0.82;;;;;;;20.16;48.88;101586.19;5031377;28;20091;-68
2022/09/18 00:03:04;;;;;;;2.75;0.80;;;;;;;20.11;48.82;101571.50;5031262;28;20041;-72
2022/09/18 00:05:30;;;;;;;3.35;0.85;;;;;;;20.19;48.58;101575.38;5031644;28;20064;-69
2022/09/18 00:07:55;;;;;;;2.40;0.80;;;;;;;20.17;48.92;101571.97;5030955;28;20061;-68
2022/09/18 00:10:21;;;;;;;1.98;0.70;;;;;;;20.16;48.92;101575.59;5031615;28;20052;-68
2022/09/18 00:12:46;;;;;;;3.85;0.90;;;;;;;20.22;49.07;101598.91;5030707;28;20079;-69
2022/09/18 00:15:11;;;;;;;2.00;0.70;;;;;;;20.15;48.79;101574.75;5031298;28;20075;-70
2022/09/18 00:17:37;;;;;;;2.28;0.90;;;;;;;20.16;48.67;101578.25;5031104;28;20041;-68
2022/09/18 00:20:03;;;;;;;2.53;0.85;;;;;;;20.10;48.90;101568.97;5031428;28;20146;-67
2022/09/18 00:22:28;;;;;;;3.92;1.10;;;;;;;20.19;48.95;101583.31;5030852;28;20033;-68
2022/09/18 00:24:54;;;;;;;2.20;0.75;;;;;;;20.09;49.07;101576.06;5030856;28;21362;-71
2022/09/18 00:27:19;;;;;;;2.35;0.90;;;;;;;20.16;49.07;101581.72;5030836;28;20080;-68
2022/09/18 00:29:45;;;;;;;2.88;0.93;;;;;;;20.16;48.87;101580.91;5031100;28;20033;-72
2022/09/18 00:32:10;;;;;;;3.97;0.90;;;;;;;20.13;48.84;101573.19;5030621;28;20038;-68
2022/09/18 00:34:37;;;;;;;3.33;0.80;;;;;;;20.12;48.85;101569.69;5030786;28;20071;-69
2022/09/18 00:37:03;;;;;;;2.42;0.70;;;;;;;20.15;48.91;101573.91;5030712;28;20324;-69
2022/09/18 00:39:28;;;;;;;2.27;0.80;;;;;;;20.11;49.13;101574.16;5031387;28;20036;-70
2022/09/18 00:41:53;;;;;;;3.13;1.00;;;;;;;20.14;48.95;101570.44;5031159;28;20258;-69
2022/09/18 00:44:30;;;;;;;3.30;0.93;;;;;;;20.12;49.03;101569.69;5030956;28;20263;-67
2022/09/18 00:47:10;;;;;;;2.03;0.80;;;;;;;20.13;48.95;101586.44;5030968;28;20353;-70
2022/09/18 00:49:38;;;;;;;2.78;0.75;;;;;;;20.05;49.07;101573.78;5030879;28;20065;-68
2022/09/18 00:52:05;;;;;;;3.20;0.90;;;;;;;20.06;49.21;101573.66;5031476;28;20034;-68
2022/09/18 00:54:36;;;;;;;2.05;0.70;;;;;;;20.11;48.98;101578.59;5030602;28;20064;-69
2022/09/18 00:57:07;;;;;;;3.03;0.80;;;;;;;20.08;49.00;101570.91;5031253;28;20132;-68
2022/09/18 00:59:35;;;;;;;1.88;0.80;;;;;;;20.05;48.89;101576.44;5030949;28;20176;-71
2022/09/18 01:02:01;;;;;;;2.38;0.63;;;;;;;20.04;48.83;101564.16;5031085;28;20033;-70
2022/09/18 01:04:28;;;;;;;2.40;0.70;;;;;;;20.06;48.98;101571.03;5030795;28;20481;-69
2022/09/18 01:07:19;;;;;;;3.13;0.80;;;;;;;20.06;49.06;101573.66;5030708;28;20044;-69
2022/09/18 01:10:09;;;;;;;3.33;1.05;;;;;;;20.10;48.98;101580.38;5030851;28;20057;-69
2022/09/18 01:12:43;;;;;;;2.83;0.98;;;;;;;20.10;49.20;101587.50;5030491;28;20056;-70
2022/09/18 01:15:15;;;;;;;;;;;;;;;20.12;49.10;101582.91;5031069;28;20042;-68
2022/09/18 01:18:15;;;;;;;2.95;0.80;;;;;;;20.11;48.88;101591.84;5030909;28;19917;-69
2022/09/18 01:21:07;;;;;;;3.30;1.00;;;;;;;20.08;49.07;101582.31;5030614;28;20095;-67
2022/09/18 01:24:09;;;;;;;2.50;0.90;;;;;;;20.09;48.97;101580.50;5030850;28;20036;-68
2022/09/18 01:26:58;;;;;;;2.20;0.80;;;;;;;20.09;48.84;101578.72;5030337;28;20057;-71
2022/09/18 01:29:45;;;;;;;2.78;1.02;;;;;;;20.09;48.77;101580.50;5031199;28;20040;-68
2022/09/18 01:32:26;;;;;;;2.55;0.80;;;;;;;20.01;48.90;101573.19;5030398;28;20095;-70
2022/09/18 01:34:59;;;;;;;3.70;1.08;;;;;;;20.01;48.97;101580.25;5030368;28;20052;-72
2022/09/18 01:37:40;;;;;;;3.70;1.00;;;;;;;20.05;49.09;101579.91;5031858;28;20033;-67
2022/09/18 01:40:12;;;;;;;3.38;1.10;;;;;;;20.04;49.17;101577.38;5034111;28;20902;-69
2022/09/18 01:42:39;;;;;;;3.42;0.77;;;;;;;19.91;48.97;101559.81;5034115;28;20057;-69
2022/09/18 01:45:08;;;;;;;3.05;1.05;;;;;;;19.96;49.02;101569.22;5033933;28;20029;-68
2022/09/18 01:47:40;;;;;;;3.20;0.80;;;;;;;19.96;49.30;101561.28;5034492;28;20148;-68
2022/09/18 01:50:06;;;;;;;2.75;0.80;;;;;;;20.03;49.21;101568.63;5034380;28;20029;-69
2022/09/18 01:52:37;;;;;;;3.50;1.17;;;;;;;20.01;49.09;101559.09;5033903;28;20419;-67
2022/09/18 01:55:08;;;;;;;3.25;0.80;;;;;;;20.03;49.11;101563.31;5034213;28;20172;-70
2022/09/18 01:57:43;;;;;;;2.83;0.70;;;;;;;20.00;49.35;101562.72;5033683;28;20025;-68
2022/09/18 02:00:11;;;;;;;2.50;0.82;;;;;;;20.02;49.31;101566.91;5033466;28;20037;-71
2022/09/18 02:02:42;;;;;;;2.10;0.75;;;;;;;20.02;49.06;101550.22;5033961;28;20080;-69
2022/09/18 02:05:17;;;;;;;3.70;0.80;;;;;;;19.98;49.05;101546.09;5034328;28;20112;-68
2022/09/18 02:07:51;;;;;;;2.55;0.80;;;;;;;19.98;49.12;101543.47;5033330;28;20033;-68
2022/09/18 02:10:20;;;;;;;1.90;0.80;;;;;;;20.03;49.19;101557.19;5033962;28;20045;-68
2022/09/18 02:12:47;;;;;;;2.92;0.90;;;;;;;19.97;49.16;101553.22;5033378;28;20271;-72
2022/09/18 02:15:14;;;;;;;2.70;0.88;;;;;;;19.91;49.34;101551.03;5033328;28;20032;-68
2022/09/18 02:17:50;;;;;;;2.85;0.90;;;;;;;19.92;49.16;101544.81;5034164;28;20057;-68
2022/09/18 02:20:23;;;;;;;2.03;0.80;;;;;;;19.95;49.19;101552.50;5033807;28;20498;-70
2022/09/18 02:22:51;;;;;;;2.78;0.77;;;;;;;19.91;49.37;101543.09;5033423;28;20087;-68
2022/09/18 02:25:24;;;;;;;3.67;1.02;;;;;;;19.89;49.20;101540.56;5033724;28;20071;-70
2022/09/18 02:27:52;;;;;;;2.47;1.00;;;;;;;19.91;49.38;101538.66;5032720;28;20042;-68
2022/09/18 02:30:18;;;;;;;3.70;1.02;;;;;;;19.88;49.10;101530.94;5033644;28;20068;-67
2022/09/18 02:32:43;;;;;;;1.67;0.60;;;;;;;19.90;49.04;101537.00;5033341;28;20034;-68
2022/09/18 02:35:10;;;;;;;2.20;0.90;;;;;;;19.88;49.31;101524.81;5033405;28;20327;-66
2022/09/18 02:37:52;;;;;;;2.05;0.73;;;;;;;19.98;49.28;101538.16;5033553;28;20041;-72
2022/09/18 02:40:47;;;;;;;2.10;1.38;;;;;;;19.90;49.37;101529.06;5033439;28;20057;-69
2022/09/18 02:43:41;;;;;;;3.20;0.80;;;;;;;19.97;49.21;101537.34;5032920;28;20164;-69
2022/09/18 02:46:19;;;;;;;1.95;0.60;;;;;;;19.95;49.19;101523.41;5033553;28;20028;-68
2022/09/18 02:49:10;;;;;;;2.08;0.70;;;;;;;19.86;49.32;101516.19;5032689;28;20029;-67
2022/09/18 02:52:05;;;;;;;4.47;0.80;;;;;;;19.93;49.37;101541.19;5032500;28;20044;-68
2022/09/18 02:54:59;;;;;;;3.70;0.80;;;;;;;19.93;49.51;101534.09;5032629;28;20053;-68
2022/09/18 02:57:43;;;;;;;1.83;0.60;;;;;;;19.92;49.13;101534.22;5031985;28;20033;-69
2022/09/18 03:00:12;;;;;;;1.80;0.68;;;;;;;19.94;49.05;101532.28;5032832;28;20029;-72
2022/09/18 03:02:37;;;;;;;2.35;0.80;;;;;;;19.88;49.54;101519.53;5033128;28;20029;-68
2022/09/18 03:05:03;;;;;;;3.17;0.90;;;;;;;19.80;49.54;101514.00;5032779;28;20361;-69
2022/09/18 03:07:28;;;;;;;1.90;0.65;;;;;;;19.87;49.28;101531.09;5032594;28;20373;-68
2022/09/18 03:09:54;;;;;;;2.45;0.70;;;;;;;19.90;49.43;101533.47;5032781;28;20040;-68
2022/09/18 03:12:19;;;;;;;2.73;0.83;;;;;;;19.89;49.57;101532.66;5032585;28;20029;-70
2022/09/18 03:14:44;;;;;;;2.60;0.80;;;;;;;19.75;49.40;101501.94;5032281;28;20301;-72
2022/09/18 03:17:10;;;;;;;2.97;0.80;;;;;;;19.82;49.49;101507.66;5032472;28;20269;-71
2022/09/18 03:19:35;;;;;;;1.55;0.50;;;;;;;19.87;49.62;101516.06;5032321;28;20668;-68
2022/09/18 03:22:00;;;;;;;2.05;0.57;;;;;;;19.80;49.45;101503.44;5032137;28;20167;-68
2022/09/18 03:24:26;;;;;;;2.13;0.70;;;;;;;19.81;49.62;101505.97;5032417;28;20153;-70
2022/09/18 03:26:52;;;;;;;3.63;0.90;;;;;;;19.85;49.28;101515.34;5031564;28;20297;-68
2022/09/18 03:29:17;;;;;;;2.55;0.77;;;;;;;19.85;49.48;101510.06;5032142;28;20037;-68
2022/09/18 03:31:43;;;;;;;3.10;0.70;;;;;;;19.84;49.55;101526.03;5032395;28;20090;-70
2022/09/18 03:34:08;;;;;;;3.15;0.80;;;;;;;19.88;49.46;101532.75;5032050;28;20044;-69
2022/09/18 03:36:34;;;;;;;1.95;0.60;;;;;;;19.86;49.70;101529.41;5032063;28;20037;-68
2022/09/18 03:38:59;;;;;;;3.33;0.70;;;;;;;19.84;49.74;101518.13;5032087;28;20037;-68
2022/09/18 03:41:25;;;;;;;1.60;0.63;;;;;;;19.75;49.89;101499.28;5032140;28;20025;-68
2022/09/18 03:43:50;;;;;;;2.53;0.70;;;;;;;19.83;49.82;101516.41;5032190;28;20491;-68
2022/09/18 03:46:21;;;;;;;3.72;0.70;;;;;;;19.85;49.57;101515.34;5031904;28;20263;-71
2022/09/18 03:48:47;;;;;;;2.28;0.75;;;;;;;19.83;49.54;101508.47;5031576;28;20037;-70
2022/09/18 03:51:12;;;;;;;3.97;0.80;;;;;;;19.82;49.87;101501.50;5031997;28;20283;-68
2022/09/18 03:53:38;;;;;;;2.38;0.80;;;;;;;19.83;49.54;101503.19;5031535;28;20472;-67
2022/09/18 03:56:03;;;;;;;2.05;0.57;;;;;;;19.85;49.64;101499.47;5031725;28;20488;-68
2022/09/18 03:58:28;;;;;;;2.60;0.63;;;;;;;19.81;49.49;101487.44;5031434;28;20457;-68
2022/09/18 04:00:54;;;;;;;3.23;0.80;;;;;;;19.84;49.57;101491.66;5037330;28;20076;-69
2022/09/18 04:03:19;;;;;;;3.63;0.70;;;;;;;19.82;49.75;101486.50;5032001;28;20746;-68
2022/09/18 04:05:47;;;;;;;1.90;0.70;;;;;;;19.80;49.81;101492.84;5031688;28;20029;-68
2022/09/18 04:08:12;;;;;;;1.90;0.70;;;;;;;19.65;49.46;101471.91;5031293;28;20052;-69
2022/09/18 04:10:38;;;;;;;1.97;0.60;;;;;;;19.76;49.50;101479.03;5031099;28;20414;-69
2022/09/18 04:13:03;;;;;;;2.38;0.68;;;;;;;19.79;49.78;101492.03;5031328;28;20333;-73
2022/09/18 04:15:28;;;;;;;2.13;0.60;;;;;;;19.74;49.55;101481.75;5031195;28;20397;-69
2022/09/18 04:17:54;;;;;;;1.30;0.60;;;;;;;19.82;49.75;101490.91;5031320;28;20348;-69
2022/09/18 04:20:19;;;;;;;2.58;0.65;;;;;;;19.76;49.41;101481.69;5031321;28;20319;-70
2022/09/18 04:22:44;;;;;;;3.17;0.90;;;;;;;19.82;49.44;101490.91;5031784;28;20082;-69
2022/09/18 04:25:10;;;;;;;2.15;0.60;;;;;;;19.79;49.59;101493.81;5030964;28;20087;-69
2022/09/18 04:27:35;;;;;;;2.75;0.88;;;;;;;19.74;49.70;101488.84;5031663;28;20139;-68
2022/09/18 04:30:01;;;;;;;2.63;0.82;;;;;;;19.75;49.87;101491.38;5030454;28;20461;-68
2022/09/18 04:32:26;;;;;;;2.90;0.65;;;;;;;19.75;49.49;101485.25;5030814;28;20068;-70
2022/09/18 04:34:52;;;;;;;1.35;0.50;;;;;;;19.72;49.52;101483.66;5031316;28;20051;-70
2022/09/18 04:37:17;;;;;;;3.43;0.80;;;;;;;19.78;49.52;101498.25;5031320;28;20075;-68
2022/09/18 04:39:42;;;;;;;2.63;0.63;;;;;;;19.74;49.63;101488.84;5029800;28;20312;-68
2022/09/18 04:42:07;;;;;;;2.80;0.60;;;;;;;19.74;49.55;101488.84;5031681;28;20110;-69
2022/09/18 04:44:33;;;;;;;2.28;0.70;;;;;;;19.74;49.67;101499.41;5030497;28;20465;-67
2022/09/18 04:46:58;;;;;;;2.43;0.60;;;;;;;19.79;49.67;101507.88;5031515;28;20033;-67
2022/09/18 04:49:23;;;;;;;1.40;0.63;;;;;;;19.76;49.74;101497.53;5031120;28;20722;-70
2022/09/18 04:51:49;;;;;;;3.50;0.50;;;;;;;19.70;49.42;101495.34;5030848;28;20052;-68
2022/09/18 04:54:14;;;;;;;3.05;0.70;;;;;;;19.75;49.63;101503.75;5030385;28;20033;-68
2022/09/18 04:56:40;;;;;;;4.63;0.50;;;;;;;19.71;49.82;101497.88;5031322;28;20039;-67
2022/09/18 04:59:05;;;;;;;2.63;0.63;;;;;;;19.72;49.61;101504.81;5030343;28;20504;-68
2022/09/18 05:01:31;;;;;;;4.47;0.88;;;;;;;19.74;49.51;101502.91;5030900;28;20112;-70
2022/09/18 05:03:56;;;;;;;2.53;0.60;;;;;;;19.74;49.61;101489.69;5031105;28;20041;-68
2022/09/18 05:06:22;;;;;;;1.33;0.50;;;;;;;19.72;49.46;101491.59;5031192;28;20060;-68
2022/09/18 05:08:47;;;;;;;2.10;0.60;;;;;;;19.73;49.79;101490.66;5020850;28;20281;-68
2022/09/18 05:11:12;;;;;;;2.38;0.70;;;;;;;19.77;49.55;101491.28;5032507;28;20029;-70
2022/09/18 05:13:39;;;;;;;3.25;0.70;;;;;;;19.70;49.77;101469.72;5034769;28;20028;-70
2022/09/18 05:16:05;;;;;;;1.77;0.60;;;;;;;19.75;49.52;101475.50;5034360;28;20457;-68
2022/09/18 05:18:30;;;;;;;2.20;0.80;;;;;;;19.75;49.49;101480.78;5034756;28;20036;-69
2022/09/18 05:21:00;;;;;;;2.83;0.68;;;;;;;19.75;49.56;101493.19;5034753;28;20060;-73
2022/09/18 05:23:25;;;;;;;2.78;0.80;;;;;;;19.68;49.83;101489.34;5034216;28;20039;-67
2022/09/18 05:25:51;;;;;;;2.07;0.63;;;;;;;19.69;49.52;101498.94;5034554;28;20033;-70
2022/09/18 05:28:18;;;;;;;2.37;0.63;;;;;;;19.73;49.72;101495.09;5034286;28;20280;-68
2022/09/18 05:30:43;;;;;;;2.03;0.60;;;;;;;19.67;49.61;101477.06;5033905;28;20758;-68
2022/09/18 05:33:10;;;;;;;1.88;0.70;;;;;;;19.74;49.48;101510.84;5036698;28;20045;-68
2022/09/18 05:35:36;;;;;;;2.85;0.82;;;;;;;19.68;49.81;101506.03;5034558;28;20059;-68
2022/09/18 05:38:02;;;;;;;2.45;0.73;;;;;;;19.68;49.46;101513.13;5034400;28;20033;-67
2022/09/18 05:40:33;;;;;;;2.30;0.55;;;;;;;19.68;49.61;101510.50;5033953;28;20037;-69
2022/09/18 05:42:59;;;;;;;3.70;0.70;;;;;;;19.73;49.64;101518.91;5034290;28;20041;-71
2022/09/18 05:45:24;;;;;;;1.63;0.50;;;;;;;19.70;49.77;101511.22;5034431;28;20043;-69
2022/09/18 05:47:55;;;;;;;2.33;0.70;;;;;;;19.67;49.73;101503.50;5034260;28;20041;-71
2022/09/18 05:50:22;;;;;;;2.97;0.90;;;;;;;19.68;49.85;101497.28;5033742;28;20155;-67
2022/09/18 05:52:57;;;;;;;2.55;0.70;;;;;;;19.66;49.68;101496.53;5033433;28;20029;-68
2022/09/18 05:55:22;;;;;;;3.85;0.88;;;;;;;19.69;49.92;101510.38;5034414;28;20033;-69
2022/09/18 05:57:51;;;;;;;2.28;0.70;;;;;;;19.69;49.63;101505.09;5029676;28;20044;-72
2022/09/18 06:00:17;;;;;;;3.85;0.80;;;;;;;19.70;49.67;101508.56;5033527;28;20043;-69
2022/09/18 06:02:42;;;;;;;2.25;0.60;;;;;;;19.71;49.87;101500.50;5034009;28;20037;-68
2022/09/18 06:05:09;;;;;;;2.97;0.53;;;;;;;19.58;49.75;101479.47;5033536;28;20029;-68
2022/09/18 06:07:34;;;;;;;2.05;0.60;;;;;;;19.73;49.85;101497.75;5033756;28;20278;-69
2022/09/18 06:09:59;;;;;;;2.85;0.75;;;;;;;19.62;49.49;101477.44;5031860;28;20041;-69
2022/09/18 06:12:24;;;;;;;2.97;0.60;;;;;;;19.73;49.50;101485.34;5034145;28;20389;-68
2022/09/18 06:14:50;;;;;;;1.83;0.50;;;;;;;19.80;49.44;101490.22;5033238;28;20285;-68
2022/09/18 06:17:15;;;;;;;1.88;0.70;;;;;;;19.82;49.44;101489.13;5033691;28;20265;-68
2022/09/18 06:19:41;;;;;;;4.13;0.80;;;;;;;19.83;49.52;101489.97;5033514;28;20040;-69
2022/09/18 06:22:06;;;;;;;1.73;0.60;;;;;;;19.83;49.55;101492.63;5032821;28;20357;-68
2022/09/18 06:24:31;;;;;;;2.45;0.68;;;;;;;19.79;49.39;101488.50;5032808;28;20714;-68
2022/09/18 06:26:57;;;;;;;2.35;0.70;;;;;;;19.78;49.59;101489.50;5032231;28;20064;-68
2022/09/18 06:29:22;;;;;;;3.00;0.68;;;;;;;19.79;49.45;101488.50;5032609;28;20634;-68
2022/09/18 06:31:47;;;;;;;2.50;0.60;;;;;;;19.83;49.96;101492.63;5033536;28;20040;-67
2022/09/18 06:34:12;;;;;;;1.75;0.60;;;;;;;19.78;49.71;101485.03;5032473;28;20307;-68
2022/09/18 06:36:38;;;;;;;3.40;0.67;;;;;;;19.84;49.64;101489.84;5031967;28;20037;-70
2022/09/18 06:39:03;;;;;;;1.57;0.70;;;;;;;19.85;50.32;101485.38;5033059;28;20416;-68
2022/09/18 06:41:28;;;;;;;2.58;0.65;;;;;;;19.84;50.19;101476.63;5032510;28;20797;-67
2022/09/18 06:43:53;;;;;;;3.10;0.70;;;;;;;19.84;50.51;101471.34;5032510;28;20461;-67
2022/09/18 06:46:19;;;;;;;3.50;0.80;;;;;;;19.80;50.64;101467.22;5033092;28;20861;-67
2022/09/18 06:48:47;;;;;;;3.03;0.50;;;;;;;19.81;50.71;101476.03;5032284;28;20039;-70
2022/09/18 06:51:12;;;;;;;3.25;0.77;;;;;;;19.78;50.82;101466.53;5031062;28;20690;-67
2022/09/18 06:53:37;;;;;;;3.17;1.10;;;;;;;19.78;50.98;101469.16;5032761;28;20025;-67
2022/09/18 06:56:03;;;;;;;5.25;0.70;;;;;;;19.77;51.00;101472.75;5033158;28;20753;-67
2022/09/18 06:58:28;;;;;;;4.28;0.90;;;;;;;19.82;51.22;101485.63;5032679;28;20063;-67
2022/09/18 07:00:53;;;;;;;4.63;0.63;;;;;;;19.83;50.97;101482.88;5032583;28;20036;-67
2022/09/18 07:03:19;;;;;;;3.45;0.73;;;;;;;19.84;50.99;101481.09;5032908;28;20363;-66
2022/09/18 07:05:44;;;;;;;3.15;0.70;;;;;;;19.90;51.05;101486.72;5032477;28;20041;-67
2022/09/18 07:08:10;;;;;;;3.60;1.48;;;;;;;19.89;51.32;101486.84;5032278;28;20033;-67
2022/09/18 07:10:36;;;;;;;4.90;1.23;;;;;;;19.86;51.21;101479.97;5032434;28;20056;-68
2022/09/18 07:13:02;;;;;;;1.48;0.60;;;;;;;19.89;51.16;101478.91;5032381;28;20025;-67
2022/09/18 07:15:28;;;;;;;3.08;0.68;;;;;;;19.91;51.51;101479.63;5031910;28;20040;-68
2022/09/18 07:18:02;;;;;;;2.78;0.80;;;;;;;19.93;51.40;101481.19;5032225;28;20033;-69
2022/09/18 07:20:28;;;;;;;3.97;0.88;;;;;;;19.79;51.45;101449.72;5032500;28;20033;-68
2022/09/18 07:22:56;;;;;;;3.65;0.60;;;;;;;19.96;51.31;101481.91;5032089;28;21197;-67
2022/09/18 07:25:21;;;;;;;2.55;0.63;;;;;;;19.98;51.33;101478.19;5032172;28;20420;-72
2022/09/18 07:27:47;;;;;;;4.50;0.90;;;;;;;19.98;51.33;101464.97;5032026;28;20049;-72
2022/09/18 07:30:13;;;;;;;2.72;0.70;;;;;;;19.96;51.44;101463.38;5031241;28;20365;-73
2022/09/18 07:32:38;;;;;;;2.08;0.65;;;;;;;19.98;51.75;101459.66;5031546;28;20036;-70
2022/09/18 07:35:04;;;;;;;1.88;0.68;;;;;;;19.97;51.58;101451.84;5030140;28;20064;-69
2022/09/18 07:37:29;;;;;;;7.65;1.58;;;;;;;19.99;51.54;101450.75;5038728;28;20060;-68
2022/09/18 07:39:55;;;;;;;3.25;0.60;;;;;;;19.96;51.65;101447.50;5032726;28;20037;-69
2022/09/18 07:42:20;;;;;;;3.22;0.70;;;;;;;19.94;51.76;101445.00;5032133;28;20037;-70
2022/09/18 07:44:45;;;;;;;4.03;1.00;;;;;;;19.98;51.88;101454.38;5032063;28;20358;-68
2022/09/18 07:47:11;;;;;;;4.95;0.80;;;;;;;19.89;51.87;101447.16;5031893;28;20021;-74
2022/09/18 07:49:37;;;;;;;5.53;1.20;;;;;;;19.89;51.78;101458.56;5030950;28;20040;-76
2022/09/18 07:52:03;;;;;;;4.07;0.75;;;;;;;19.92;51.98;101463.63;5030692;28;20890;-76
2022/09/18 07:54:29;;;;;;;5.90;0.70;;;;;;;19.91;52.10;101455.81;5025019;28;20047;-74
2022/09/18 07:56:55;;;;;;;3.42;0.90;;;;;;;19.92;52.21;101447.75;5030685;28;20090;-75
2022/09/18 07:59:20;;;;;;;2.87;0.77;;;;;;;19.99;51.73;101448.09;5031383;28;20033;-73
2022/09/18 08:01:45;;;;;;;4.47;0.70;;;;;;;20.06;51.75;101451.97;5030960;28;20262;-71
2022/09/18 08:04:11;;;;;;;3.25;0.70;;;;;;;20.06;51.88;101451.97;5030145;28;20036;-76
2022/09/18 08:06:36;;;;;;;3.43;0.70;;;;;;;20.06;51.87;101453.75;5031338;28;20084;-72
2022/09/18 08:09:01;;;;;;;2.67;0.57;;;;;;;20.00;51.64;101444.50;5030582;28;20572;-76
2022/09/18 08:11:26;;;;;;;2.65;0.70;;;;;;;20.14;51.67;101448.69;5029895;28;20274;-74
2022/09/18 08:13:52;;;;;;;3.42;0.90;;;;;;;20.16;52.21;101446.75;5029894;28;20057;-75
2022/09/18 08:16:17;;;;;;;3.97;0.70;;;;;;;20.26;52.13;101449.50;5030661;28;20413;-73
2022/09/18 08:18:42;;;;;;;5.07;0.82;;;;;;;20.09;51.74;101425.25;5031000;28;20090;-74
2022/09/18 08:21:08;;;;;;;5.20;0.80;;;;;;;20.25;51.89;101458.41;5029416;28;20033;-72
2022/09/18 08:23:34;;;;;;;2.70;0.70;;;;;;;20.27;51.86;101456.50;5030037;28;20037;-74
2022/09/18 08:26:01;;;;;;;6.32;1.30;;;;;;;20.24;51.70;101452.28;5029185;28;20057;-74
2022/09/18 08:28:26;;;;;;;3.22;0.80;;;;;;;20.28;51.52;101458.16;5029702;28;20048;-76
2022/09/18 08:30:51;;;;;;;3.93;0.93;;;;;;;20.27;51.31;101462.63;5030563;28;20523;-77
2022/09/18 08:33:16;;;;;;;2.65;0.70;;;;;;;20.34;51.12;101468.25;5030672;28;20297;-72
2022/09/18 08:35:42;;;;;;;5.35;0.90;;;;;;;20.41;51.15;101476.53;5031000;28;20064;-76
2022/09/18 08:38:09;;;;;;;1.70;0.50;;;;;;;20.41;51.43;101474.75;5030490;28;20064;-77
2022/09/18 08:40:53;;;;;;;3.97;1.17;;;;;;;20.47;51.12;101470.75;5033562;28;20278;-77
2022/09/18 08:43:37;;;;;;;5.37;0.90;;;;;;;20.50;50.90;101473.13;5029988;28;20557;-75
2022/09/18 08:46:31;;;;;;;5.03;0.82;;;;;;;20.56;51.12;101482.41;5030844;28;20041;-75
2022/09/18 08:49:21;;;;;;;5.20;0.77;;;;;;;20.59;50.97;101475.03;5030375;28;20033;-74
2022/09/18 08:52:02;;;;;;;4.38;1.23;;;;;;;20.61;50.92;101466.97;5030040;28;20116;-75
2022/09/18 08:54:46;;;;;;;2.63;0.70;;;;;;;20.63;50.84;101467.66;5030439;28;20037;-76
2022/09/18 08:57:43;;;;;;;6.93;0.70;;;;;;;20.57;51.05;101473.47;5030327;28;20076;-72
2022/09/18 09:00:41;;;;;;;2.85;0.50;;;;;;;20.57;51.19;101476.13;5029376;28;20045;-77
2022/09/18 09:03:25;;;;;;;5.03;0.70;;;;;;;20.58;51.05;101476.00;5038267;28;20041;-76
2022/09/18 09:05:57;;;;;;;3.70;0.82;;;;;;;20.61;51.02;101481.03;5030506;28;20029;-74
2022/09/18 09:08:42;;;;;;;2.80;0.63;;;;;;;20.62;50.97;101476.59;5030183;28;20123;-77
2022/09/18 09:11:41;;;;;;;5.18;0.98;;;;;;;20.57;51.17;101478.75;5029833;28;20040;-73
2022/09/18 09:14:23;;;;;;;2.75;0.60;;;;;;;20.51;51.02;101477.47;5029688;28;20025;-75
2022/09/18 09:16:52;;;;;;;6.38;0.75;;;;;;;20.49;51.31;101458.22;5030279;28;20029;-74
2022/09/18 09:19:30;;;;;;;4.13;0.88;;;;;;;20.61;51.22;101478.38;5029545;28;20037;-74
2022/09/18 09:22:15;;;;;;;3.13;0.82;;;;;;;20.58;51.25;101469.88;5029842;28;20555;-73
2022/09/18 09:24:53;;;;;;;3.63;0.80;;;;;;;20.58;51.48;101469.88;5029866;28;20029;-75
2022/09/18 09:27:25;;;;;;;4.85;0.68;;;;;;;20.53;51.25;101475.53;5025683;28;20490;-73
2022/09/18 09:30:01;;;;;;;4.50;1.45;;;;;;;20.52;51.28;101486.25;5028880;28;20033;-74
2022/09/18 09:32:33;;;;;;;4.70;1.33;;;;;;;20.49;51.71;101476.78;5036175;28;21224;-73
2022/09/18 09:34:58;;;;;;;4.25;0.95;;;;;;;20.47;51.41;101471.59;5030322;28;20116;-79
2022/09/18 09:37:32;;;;;;;5.55;0.80;;;;;;;20.49;51.37;101468.81;5028892;28;20136;-73
2022/09/18 09:40:09;;;;;;;3.40;0.70;;;;;;;20.58;51.69;101473.34;5029697;28;20040;-74
2022/09/18 09:42:45;;;;;;;4.38;0.98;;;;;;;20.58;51.47;101465.41;5028826;28;20033;-75
2022/09/18 09:45:23;;;;;;;2.92;1.13;;;;;;;20.62;51.37;101484.56;5029499;28;20367;-76
2022/09/18 09:47:54;;;;;;;6.32;0.90;;;;;;;20.60;51.30;101471.44;5030063;28;20500;-72
2022/09/18 09:50:22;;;;;;;3.17;0.73;;;;;;;20.60;51.26;101484.69;5029388;28;20048;-70
2022/09/18 09:52:48;;;;;;;3.47;1.88;;;;;;;20.51;51.07;101485.41;5029539;28;20029;-73
2022/09/18 09:55:14;;;;;;;6.20;0.90;;;;;;;20.50;51.33;101481.06;5030742;28;20021;-72
2022/09/18 09:57:55;;;;;;;4.65;1.05;;;;;;;20.48;51.71;101467.13;5028783;28;20437;-75
2022/09/18 10:00:20;;;;;;;2.90;0.90;;;;;;;20.42;51.54;101457.88;5033323;28;20033;-77
2022/09/18 10:03:23;;;;;;;3.67;0.90;;;;;;;20.48;51.76;101432.72;5026623;28;20037;-72
2022/09/18 10:06:01;;;;;;;4.20;0.95;;;;;;;20.51;51.69;101448.34;5033346;28;20040;-75
2022/09/18 10:08:39;;;;;;;4.55;0.93;;;;;;;20.48;51.50;101441.50;5033159;28;20034;-78
2022/09/18 10:11:09;;;;;;;5.88;0.80;;;;;;;20.45;52.07;101448.84;5033759;28;20025;-71
2022/09/18 10:13:42;;;;;;;4.55;0.80;;;;;;;20.45;52.04;101444.38;5030517;28;20030;-69
2022/09/18 10:16:32;;;;;;;3.65;1.30;;;;;;;20.41;51.92;101431.53;5033947;28;20041;-72
2022/09/18 10:18:59;;;;;;;2.95;0.68;;;;;;;20.44;51.88;101439.22;5033470;28;20052;-69
2022/09/18 10:21:27;;;;;;;3.90;0.90;;;;;;;20.48;52.01;101438.84;5032217;28;20029;-71
2022/09/18 10:24:11;;;;;;;3.35;0.90;;;;;;;20.50;51.72;101444.00;5033163;28;20033;-73
2022/09/18 10:26:42;;;;;;;3.03;0.80;;;;;;;20.43;52.06;101437.56;5031608;28;20098;-69
2022/09/18 10:29:10;;;;;;;3.80;0.80;;;;;;;20.51;52.00;101448.34;5034013;28;20044;-69
2022/09/18 10:31:54;;;;;;;7.75;1.00;;;;;;;20.50;51.52;101453.78;5032712;28;20033;-69
2022/09/18 10:34:28;;;;;;;3.95;0.90;;;;;;;20.45;52.05;101449.69;5033287;28;20026;-69
2022/09/18 10:36:54;;;;;;;3.30;0.82;;;;;;;20.47;51.97;101453.06;5046554;28;20021;-71
2022/09/18 10:39:30;;;;;;;1.95;0.70;;;;;;;20.43;51.56;101435.72;5033287;28;20439;-68
2022/09/18 10:42:04;;;;;;;3.17;0.73;;;;;;;20.46;51.86;101437.31;5032727;28;20376;-71
2022/09/18 10:44:42;;;;;;;3.75;0.70;;;;;;;20.51;51.49;101447.53;5033159;28;20079;-70
2022/09/18 10:47:18;;;;;;;3.55;0.65;;;;;;;20.48;51.68;101436.19;5033384;28;20044;-68
2022/09/18 10:49:54;;;;;;;4.57;1.30;;;;;;;20.54;52.01;101447.28;5033068;28;20037;-68
2022/09/18 10:52:33;;;;;;;2.92;0.60;;;;;;;20.46;51.96;101427.53;5032495;28;20068;-69
2022/09/18 10:55:05;;;;;;;4.18;0.90;;;;;;;20.49;52.61;101426.47;5032890;28;20041;-70
2022/09/18 10:57:35;;;;;;;3.42;0.68;;;;;;;20.44;52.36;101421.53;5033158;28;20025;-69
2022/09/18 11:00:23;;;;;;;4.85;0.93;;;;;;;20.45;52.55;101417.06;5033399;28;20028;-70
2022/09/18 11:03:06;;;;;;;4.97;0.90;;;;;;;20.48;52.35;101419.47;5034149;28;20400;-78
2022/09/18 11:05:35;;;;;;;3.03;0.70;;;;;;;20.43;52.68;101405.78;5032350;28;20996;-78
2022/09/18 11:08:06;;;;;;;4.28;1.10;;;;;;;20.43;52.78;101408.44;5031998;28;20258;-76
2022/09/18 11:10:32;;;;;;;2.65;0.65;;;;;;;20.38;53.02;101400.03;5031408;28;20464;-78
2022/09/18 11:13:02;;;;;;;5.60;1.48;;;;;;;20.43;52.64;101411.91;5031242;28;20029;-80
2022/09/18 11:15:34;;;;;;;4.30;0.88;;;;;;;20.54;52.53;101429.56;5031860;28;20056;-80
2022/09/18 11:18:04;;;;;;;2.70;0.70;;;;;;;20.59;52.39;101432.66;5032264;28;20538;-75
2022/09/18 11:20:40;;;;;;;2.78;0.60;;;;;;;20.57;52.35;101431.09;5031157;28;20030;-69
2022/09/18 11:23:29;;;;;;;3.78;0.93;;;;;;;20.55;52.36;101433.88;5031071;28;20384;-68
2022/09/18 11:26:16;;;;;;;3.22;0.85;;;;;;;20.56;52.08;101426.78;5032105;28;20101;-72
2022/09/18 11:28:41;;;;;;;3.28;0.90;;;;;;;20.55;52.21;101428.59;5035082;28;20044;-71
2022/09/18 11:31:14;;;;;;;3.85;0.75;;;;;;;20.58;52.15;101440.75;5033553;28;20511;-66
2022/09/18 11:33:52;;;;;;;3.90;0.98;;;;;;;20.50;52.28;101451.94;5033574;28;20044;-72
2022/09/18 11:36:30;;;;;;;8.98;1.10;;;;;;;20.56;51.79;101459.41;5038165;28;20470;-72
2022/09/18 11:38:58;;;;;;;2.53;0.60;;;;;;;20.51;51.90;101448.34;5031981;28;20037;-71